Time;durP1;ratioP1;P1;durP2;ratioP2;P2;SDS_P1;SDS_P2;PMS_P1;PMS_P2;Temp;Humidity;BMP_temperature;BMP_pressure;BME280_temperature;BME280_humidity;BME280_pressure;Samples;Min_cycle;Max_cycle;Signal;HPM_P1;HPM_P2
2023/09/10 00:01:21;;;;;;;11.50;5.10;;;;;;;17.23;61.80;100411.28;5107328;28;20189;-30
2023/09/10 00:03:47;;;;;;;10.25;4.85;;;;;;;17.45;62.68;100403.13;5106965;28;20023;-31
2023/09/10 00:06:12;;;;;;;9.63;4.90;;;;;;;17.57;61.67;100402.94;5106836;28;20474;-30
2023/09/10 00:08:37;;;;;;;9.43;4.35;;;;;;;17.59;60.20;100401.63;5106782;28;20058;-30
2023/09/10 00:11:05;;;;;;;10.65;4.55;;;;;;;17.29;61.50;100404.88;5106637;28;20452;-32
2023/09/10 00:13:30;;;;;;;12.70;4.57;;;;;;;17.19;63.75;100405.56;5106735;28;20031;-30
2023/09/10 00:15:56;;;;;;;11.05;4.18;;;;;;;17.56;64.93;100407.53;5106638;28;20034;-31
2023/09/10 00:18:22;;;;;;;11.50;4.50;;;;;;;17.58;64.68;100402.69;5106459;28;20084;-31
2023/09/10 00:20:51;;;;;;;10.43;4.35;;;;;;;17.72;64.83;100404.97;5106476;28;20034;-31
2023/09/10 00:23:17;;;;;;;11.40;4.43;;;;;;;17.78;65.50;100396.66;5106106;28;20028;-30
2023/09/10 00:25:42;;;;;;;10.27;4.00;;;;;;;18.11;65.50;100399.34;5106832;28;20027;-30
2023/09/10 00:28:08;;;;;;;10.13;3.80;;;;;;;17.85;64.74;100399.97;5106282;28;20031;-30
2023/09/10 00:30:33;;;;;;;8.75;4.13;;;;;;;17.82;64.03;100405.06;5106745;28;20030;-31
2023/09/10 00:32:59;;;;;;;6.60;3.30;;;;;;;17.68;64.46;100397.38;5106386;28;20118;-30
2023/09/10 00:35:24;;;;;;;7.57;3.75;;;;;;;17.56;60.70;100404.84;5106435;28;20055;-30
2023/09/10 00:37:49;;;;;;;9.38;3.85;;;;;;;17.51;64.98;100407.50;5106189;28;20038;-34
2023/09/10 00:40:15;;;;;;;9.38;3.83;;;;;;;17.90;62.72;100409.16;5106313;28;20113;-30
2023/09/10 00:42:40;;;;;;;9.40;3.15;;;;;;;17.91;61.54;100406.22;5105980;28;20043;-31
2023/09/10 00:45:08;;;;;;;9.88;3.50;;;;;;;17.54;63.41;100406.16;5106410;28;20036;-30
2023/09/10 00:47:35;;;;;;;33.22;15.05;;;;;;;17.35;65.71;100397.66;5105475;28;20035;-31
2023/09/10 00:50:01;;;;;;;10.63;4.37;;;;;;;17.19;63.47;100405.56;5106213;28;20076;-30
2023/09/10 00:52:29;;;;;;;13.35;4.32;;;;;;;16.96;63.74;100395.09;5105587;28;20770;-27
2023/09/10 00:54:54;;;;;;;8.93;3.63;;;;;;;17.02;63.72;100403.00;5106081;28;20078;-30
2023/09/10 00:57:20;;;;;;;9.10;3.40;;;;;;;17.38;65.53;100402.50;5105949;28;20435;-31
2023/09/10 00:59:46;;;;;;;7.85;3.10;;;;;;;17.33;62.77;100406.00;5105764;28;20496;-33
2023/09/10 01:02:14;;;;;;;6.45;2.97;;;;;;;17.41;62.72;100410.09;5106023;28;20042;-31
2023/09/10 01:04:40;;;;;;;7.45;2.88;;;;;;;17.37;65.18;100385.53;5105474;28;20117;-31
2023/09/10 01:07:06;;;;;;;8.02;2.92;;;;;;;17.75;63.96;100407.13;5105949;28;20032;-30
2023/09/10 01:09:31;;;;;;;10.13;3.17;;;;;;;17.76;62.32;100398.00;5105792;28;20020;-30
2023/09/10 01:12:35;;;;;;;11.15;3.03;;;;;;;17.73;61.54;100396.59;5105754;28;20027;-30
2023/09/10 01:15:11;;;;;;;5.80;2.95;;;;;;;17.47;60.16;100382.94;5073873;28;20130;-30
2023/09/10 01:17:54;;;;;;;9.02;2.88;;;;;;;17.07;61.96;100389.56;5105819;28;20020;-30
2023/09/10 01:20:47;;;;;;;13.25;3.15;;;;;;;17.16;61.71;100389.09;5105725;28;20046;-31
2023/09/10 01:23:50;;;;;;;7.85;2.53;;;;;;;17.06;61.18;100400.56;5106039;28;20480;-32
2023/09/10 01:26:15;;;;;;;7.20;2.58;;;;;;;16.90;64.51;100391.53;5109858;28;20032;-31
2023/09/10 01:28:41;;;;;;;6.75;2.22;;;;;;;16.97;58.73;100396.72;5109833;28;20118;-30
2023/09/10 01:31:19;;;;;;;7.22;2.33;;;;;;;17.18;60.11;100397.75;5109925;28;20020;-30
2023/09/10 01:33:46;;;;;;;;;;;;;;;17.12;61.32;100393.38;5110421;28;20110;-30
2023/09/10 01:36:18;;;;;;;6.30;2.25;;;;;;;16.98;58.79;100392.94;5109653;28;19927;-29
2023/09/10 01:39:00;;;;;;;6.15;2.40;;;;;;;16.86;57.42;100375.06;5109814;28;20071;-30
2023/09/10 01:41:27;;;;;;;6.40;2.25;;;;;;;17.04;61.36;100381.16;5109657;28;20027;-30
2023/09/10 01:43:54;;;;;;;4.82;2.47;;;;;;;16.85;61.88;100384.19;5109620;28;20110;-29
2023/09/10 01:46:23;;;;;;;6.38;2.33;;;;;;;16.82;60.06;100378.53;5109396;28;20027;-30
2023/09/10 01:48:48;;;;;;;4.13;1.95;;;;;;;16.69;57.87;100382.38;5109366;28;20496;-30
2023/09/10 01:51:16;;;;;;;6.70;2.35;;;;;;;16.86;61.83;100390.41;5109078;28;20097;-30
2023/09/10 01:53:42;;;;;;;;;;;;;;;16.89;61.46;100392.59;5110075;28;20082;-30
2023/09/10 01:56:07;;;;;;;5.57;2.10;;;;;;;16.92;60.31;100381.31;5109571;28;19959;-29
2023/09/10 01:58:32;;;;;;;4.82;2.22;;;;;;;16.77;58.10;100387.31;5109534;28;20032;-29
2023/09/10 02:00:58;;;;;;;5.57;2.28;;;;;;;16.98;63.28;100382.16;5109009;28;20770;-30
2023/09/10 02:03:23;;;;;;;7.47;3.03;;;;;;;16.84;61.83;100381.78;5109259;28;20027;-30
2023/09/10 02:05:51;;;;;;;7.38;2.45;;;;;;;16.86;63.29;100380.44;5109295;28;20287;-31
2023/09/10 02:08:17;;;;;;;5.18;2.72;;;;;;;16.41;62.41;100394.97;5108824;27;20106;-30
2023/09/10 02:10:42;;;;;;;25.73;9.75;;;;;;;16.20;64.27;100387.66;5109151;28;20578;-30
2023/09/10 02:13:08;;;;;;;13.63;5.45;;;;;;;16.28;64.00;100389.94;5108867;28;20031;-32
2023/09/10 02:15:33;;;;;;;35.10;15.05;;;;;;;15.96;68.52;100397.84;5109219;28;20034;-31
2023/09/10 02:17:58;;;;;;;36.28;16.08;;;;;;;15.85;68.08;100381.56;5108806;28;20771;-30
2023/09/10 02:20:24;;;;;;;34.65;14.30;;;;;;;16.09;65.66;100393.97;5108977;28;20558;-30
2023/09/10 02:22:49;;;;;;;37.97;15.23;;;;;;;16.07;64.37;100397.72;5109111;28;20404;-30
2023/09/10 02:25:16;;;;;;;32.67;13.48;;;;;;;16.06;66.76;100393.41;5108628;28;20605;-30
2023/09/10 02:27:41;;;;;;;66.10;23.15;;;;;;;16.29;65.98;100396.97;5108852;28;20031;-30
2023/09/10 02:30:13;;;;;;;45.20;18.17;;;;;;;15.91;64.44;100393.19;5109174;28;20020;-30
2023/09/10 02:32:38;;;;;;;37.10;15.73;;;;;;;16.14;66.54;100394.03;5108759;28;20016;-30
2023/09/10 02:35:04;;;;;;;49.75;19.65;;;;;;;16.22;66.99;100382.84;5108537;28;20028;-30
2023/09/10 02:38:05;;;;;;;189.93;69.20;;;;;;;16.15;66.56;100366.91;5108486;28;20130;-30
2023/09/10 02:40:30;;;;;;;118.63;42.85;;;;;;;15.82;62.59;100382.03;5064623;28;20043;-30
2023/09/10 02:42:56;;;;;;;41.58;16.08;;;;;;;15.81;62.71;100387.66;5108427;28;20056;-31
2023/09/10 02:45:21;;;;;;;28.08;11.07;;;;;;;15.83;63.76;100390.91;5108248;28;20047;-30
2023/09/10 02:47:46;;;;;;;105.13;39.83;;;;;;;15.65;65.26;100383.88;5108467;28;20020;-30
2023/09/10 02:50:12;;;;;;;172.73;68.15;;;;;;;15.71;64.88;100379.38;5108216;28;20032;-29
2023/09/10 02:52:37;;;;;;;55.88;24.10;;;;;;;15.49;69.48;100390.88;5108457;28;20063;-29
2023/09/10 02:55:03;;;;;;;44.00;17.50;;;;;;;16.01;69.16;100387.94;5108112;28;20019;-34
2023/09/10 02:57:28;;;;;;;19.65;7.82;;;;;;;15.71;65.25;100385.56;5108318;28;20396;-31
2023/09/10 02:59:55;;;;;;;29.42;10.77;;;;;;;15.62;66.15;100379.81;5108342;28;20046;-30
2023/09/10 03:02:22;;;;;;;16.52;7.05;;;;;;;15.78;69.75;100391.66;5108460;28;20036;-29
2023/09/10 03:04:47;;;;;;;15.10;5.85;;;;;;;15.87;68.62;100378.59;5108266;28;20047;-30
2023/09/10 03:07:13;;;;;;;7.47;4.20;;;;;;;15.75;68.10;100381.41;5107953;28;20051;-29
2023/09/10 03:09:38;;;;;;;14.88;6.63;;;;;;;15.77;68.56;100381.13;5107993;28;20426;-30
2023/09/10 03:12:24;;;;;;;24.52;8.60;;;;;;;15.53;68.18;100370.53;5107968;27;20024;-31
2023/09/10 03:14:53;;;;;;;19.42;8.90;;;;;;;16.00;70.87;100385.53;5107882;28;20067;-30
2023/09/10 03:17:19;;;;;;;23.92;9.98;;;;;;;15.82;69.88;100391.97;5107716;28;20551;-30
2023/09/10 03:19:45;;;;;;;37.97;13.73;;;;;;;15.83;70.94;100394.44;5107984;28;20088;-29
2023/09/10 03:22:11;;;;;;;41.47;20.65;;;;;;;16.13;69.95;100395.13;5107486;28;20031;-31
2023/09/10 03:24:37;;;;;;;47.40;19.63;;;;;;;16.71;68.14;100398.28;5108049;28;20055;-30
2023/09/10 03:27:03;;;;;;;29.02;13.15;;;;;;;16.48;68.90;100402.84;5107748;28;20055;-31
2023/09/10 03:29:30;;;;;;;16.98;7.97;;;;;;;16.38;67.64;100398.13;5107302;28;20026;-31
2023/09/10 03:31:55;;;;;;;25.27;10.65;;;;;;;16.35;69.31;100395.97;5107156;28;20059;-30
2023/09/10 03:34:21;;;;;;;32.95;12.35;;;;;;;16.45;69.20;100398.78;5107278;28;20913;-30
2023/09/10 03:36:46;;;;;;;17.55;7.45;;;;;;;16.33;67.39;100384.63;5107940;28;20027;-30
2023/09/10 03:39:12;;;;;;;12.10;4.43;;;;;;;16.13;67.53;100406.69;5107446;28;20031;-31
2023/09/10 03:41:37;;;;;;;11.25;4.38;;;;;;;15.98;67.60;100404.59;5107596;28;20046;-30
2023/09/10 03:44:03;;;;;;;11.90;4.43;;;;;;;15.81;70.03;100393.03;5107239;28;20092;-29
2023/09/10 03:46:28;;;;;;;34.53;12.43;;;;;;;15.82;71.99;100410.81;5106632;28;20401;-30
2023/09/10 03:48:54;;;;;;;75.25;31.42;;;;;;;15.64;71.17;100417.19;5107005;28;20127;-31
2023/09/10 03:51:19;;;;;;;79.28;28.42;;;;;;;16.34;71.44;100410.47;5106952;28;20047;-30
2023/09/10 03:53:45;;;;;;;38.58;14.15;;;;;;;16.02;70.89;100421.06;5107069;28;20038;-30
2023/09/10 03:56:10;;;;;;;14.07;5.97;;;;;;;15.83;74.09;100415.94;5106895;28;20031;-31
2023/09/10 03:58:35;;;;;;;9.00;4.28;;;;;;;15.80;73.51;100416.41;5106910;28;20076;-29
2023/09/10 04:01:02;;;;;;;10.23;4.18;;;;;;;15.98;74.02;100417.25;5106663;28;20393;-30
2023/09/10 04:03:27;;;;;;;10.45;3.38;;;;;;;15.87;72.55;100421.63;5107183;28;20580;-29
2023/09/10 04:05:53;;;;;;;8.43;3.63;;;;;;;15.75;73.42;100420.91;5106699;28;20027;-29
2023/09/10 04:08:20;;;;;;;11.23;3.50;;;;;;;15.78;73.14;100423.91;5106748;28;20068;-29
2023/09/10 04:10:46;;;;;;;8.95;4.55;;;;;;;15.58;73.77;100423.56;5106939;28;20084;-31
2023/09/10 04:13:11;;;;;;;7.47;3.33;;;;;;;15.44;74.02;100425.72;5106213;28;20032;-31
2023/09/10 04:15:37;;;;;;;9.73;3.67;;;;;;;15.25;76.21;100419.75;5107014;28;20049;-31
2023/09/10 04:18:05;;;;;;;10.10;3.70;;;;;;;15.67;73.88;100422.06;5106734;28;20019;-30
2023/09/10 04:20:31;;;;;;;12.93;5.72;;;;;;;15.51;74.85;100429.09;5106759;28;20151;-33
2023/09/10 04:22:56;;;;;;;60.88;24.05;;;;;;;15.32;75.84;100428.47;5106207;28;20472;-30
2023/09/10 04:25:22;;;;;;;97.47;36.00;;;;;;;15.57;74.40;100419.22;5106385;28;20452;-30
2023/09/10 04:27:48;;;;;;;180.07;63.28;;;;;;;15.66;74.54;100428.53;5106473;28;20019;-30
2023/09/10 04:30:13;;;;;;;190.23;72.75;;;;;;;15.45;76.51;100435.44;5106297;27;20019;-30
2023/09/10 04:32:39;;;;;;;193.73;70.18;;;;;;;15.54;76.19;100428.59;5106238;28;20016;-30
2023/09/10 04:35:05;;;;;;;144.15;51.60;;;;;;;15.68;74.81;100443.34;5106114;28;20020;-30
2023/09/10 04:37:31;;;;;;;132.70;46.42;;;;;;;15.66;74.55;100437.41;5106225;28;20019;-30
2023/09/10 04:39:56;;;;;;;36.95;15.43;;;;;;;15.12;76.47;100434.31;5106457;28;20907;-30
2023/09/10 04:42:22;;;;;;;41.22;16.70;;;;;;;14.69;79.61;100435.59;5105764;28;20035;-29
2023/09/10 04:44:48;;;;;;;34.83;15.50;;;;;;;14.66;80.59;100430.69;5106161;28;20059;-30
2023/09/10 04:47:14;;;;;;;35.13;14.18;;;;;;;15.31;77.23;100436.78;5106081;28;20032;-30
2023/09/10 04:49:42;;;;;;;35.75;15.68;;;;;;;15.52;76.36;100441.47;5106494;28;20641;-30
2023/09/10 04:52:43;;;;;;;36.55;14.98;;;;;;;15.80;75.13;100442.50;5106571;28;20532;-31
2023/09/10 04:55:44;;;;;;;29.92;13.35;;;;;;;15.67;75.57;100443.59;5022733;28;20033;-30
2023/09/10 04:58:12;;;;;;;21.25;9.63;;;;;;;15.91;75.96;100432.72;5041720;28;20108;-30
2023/09/10 05:00:40;;;;;;;13.88;5.70;;;;;;;16.02;75.57;100445.28;5093589;28;20126;-29
2023/09/10 05:03:47;;;;;;;6.97;3.65;;;;;;;16.21;73.59;100448.50;5105721;28;20463;-30
2023/09/10 05:06:47;;;;;;;8.10;4.10;;;;;;;16.50;71.66;100446.50;5106245;28;20088;-31
2023/09/10 05:09:51;;;;;;;5.57;3.40;;;;;;;16.46;71.84;100437.28;5042366;28;20048;-31
2023/09/10 05:13:04;;;;;;;7.72;3.83;;;;;;;16.56;71.93;100433.91;5038134;28;20048;-28
2023/09/10 05:15:54;;;;;;;10.30;4.25;;;;;;;16.72;71.68;100438.44;4982934;28;20096;-30
2023/09/10 05:18:55;;;;;;;39.22;15.23;;;;;;;16.89;70.05;100441.09;4973819;28;20045;-29
2023/09/10 05:21:59;;;;;;;16.23;7.35;;;;;;;16.86;69.56;100438.91;5020477;28;20480;-31
2023/09/10 05:25:03;;;;;;;27.05;12.10;;;;;;;17.05;67.77;100429.41;5062464;28;20067;-29
2023/09/10 05:28:14;;;;;;;47.35;19.55;;;;;;;17.06;68.31;100432.91;5022287;28;20072;-31
2023/09/10 05:31:05;;;;;;;10.45;4.00;;;;;;;17.01;67.98;100422.91;5003575;28;20044;-30
2023/09/10 05:34:03;;;;;;;7.85;3.85;;;;;;;17.26;67.24;100449.31;5059943;28;20048;-30
2023/09/10 05:36:28;;;;;;;43.83;15.18;;;;;;;17.60;66.00;100451.00;5062155;28;20025;-31
2023/09/10 05:38:54;;;;;;;30.17;13.38;;;;;;;17.54;68.12;100444.72;5081152;28;20045;-32
2023/09/10 05:41:55;;;;;;;28.98;11.18;;;;;;;17.98;64.44;100455.38;5105605;28;20039;-32
2023/09/10 05:44:52;;;;;;;28.83;10.80;;;;;;;18.38;61.11;100456.72;5022010;28;20032;-29
2023/09/10 05:47:49;;;;;;;18.23;8.20;;;;;;;18.07;63.30;100459.22;5048769;28;20049;-29
2023/09/10 05:51:03;;;;;;;22.33;9.52;;;;;;;18.41;61.69;100458.91;5050461;28;20042;-32
2023/09/10 05:53:50;;;;;;;10.57;4.07;;;;;;;18.57;60.07;100462.50;5041615;28;20049;-30
2023/09/10 05:56:55;;;;;;;12.10;5.30;;;;;;;18.41;60.40;100461.59;5041836;28;20033;-30
2023/09/10 05:59:21;;;;;;;11.57;5.30;;;;;;;18.73;59.59;100463.38;5041460;28;20033;-31
2023/09/10 06:01:46;;;;;;;29.90;11.40;;;;;;;19.03;57.67;100470.03;5041847;28;20044;-30
2023/09/10 06:04:49;;;;;;;14.57;4.22;;;;;;;19.10;57.38;100472.47;5077193;28;20055;-29
2023/09/10 06:07:50;;;;;;;15.02;6.90;;;;;;;19.28;55.06;100471.97;5103841;28;20024;-29
2023/09/10 06:10:53;;;;;;;11.60;4.55;;;;;;;19.24;56.39;100469.00;5095387;28;20036;-30
2023/09/10 06:13:57;;;;;;;10.82;3.85;;;;;;;19.40;55.48;100474.44;5097399;28;20768;-29
2023/09/10 06:16:58;;;;;;;19.20;8.13;;;;;;;19.86;53.75;100479.94;5085221;28;20098;-29
2023/09/10 06:20:15;;;;;;;21.00;7.80;;;;;;;20.02;51.85;100484.28;5025053;28;20041;-33
2023/09/10 06:23:02;;;;;;;12.88;6.03;;;;;;;20.07;50.55;100495.09;5045159;28;20075;-30
2023/09/10 06:26:13;;;;;;;13.07;4.85;;;;;;;20.03;51.27;100482.38;5044299;28;20430;-30
2023/09/10 06:29:06;;;;;;;7.50;3.33;;;;;;;20.33;49.38;100497.78;5043925;28;20021;-31
2023/09/10 06:32:09;;;;;;;5.20;2.55;;;;;;;20.42;48.80;100500.75;5045201;28;20529;-30
2023/09/10 06:35:09;;;;;;;8.63;3.28;;;;;;;20.47;48.32;100501.53;5045109;28;20037;-30
2023/09/10 06:38:10;;;;;;;6.70;2.85;;;;;;;20.77;49.51;100486.31;5025208;28;20048;-30
2023/09/10 06:41:14;;;;;;;5.88;2.60;;;;;;;20.90;48.81;100500.34;5041919;28;20037;-32
2023/09/10 06:44:14;;;;;;;8.55;2.35;;;;;;;21.12;48.83;100494.56;5025949;28;20090;-29
2023/09/10 06:47:15;;;;;;;8.73;3.60;;;;;;;21.50;47.99;100495.75;5085823;28;20620;-29
2023/09/10 06:50:19;;;;;;;15.43;5.60;;;;;;;21.83;45.11;100506.91;5063402;28;20638;-30
2023/09/10 06:53:20;;;;;;;11.27;4.72;;;;;;;21.72;44.87;100499.91;5064342;28;20109;-30
2023/09/10 06:56:30;;;;;;;8.93;2.50;;;;;;;21.52;46.29;100503.59;5088574;28;20041;-29
2023/09/10 06:59:22;;;;;;;4.88;2.00;;;;;;;21.75;46.10;100496.66;5065506;28;20064;-30
2023/09/10 07:02:22;;;;;;;6.03;2.00;;;;;;;21.96;45.24;100511.69;5092592;28;20035;-33
2023/09/10 07:05:26;;;;;;;4.32;2.10;;;;;;;21.90;45.65;100499.25;5034589;28;20041;-31
2023/09/10 07:08:29;;;;;;;8.40;2.33;;;;;;;22.20;45.88;100521.81;5034837;28;20040;-29
2023/09/10 07:11:43;;;;;;;5.78;2.45;;;;;;;22.25;44.28;100519.06;5042031;28;20506;-30
2023/09/10 07:14:44;;;;;;;6.03;2.53;;;;;;;22.42;42.73;100516.75;5006477;28;20058;-31
2023/09/10 07:17:45;;;;;;;6.47;2.28;;;;;;;22.81;43.11;100523.94;4975939;28;20121;-30
2023/09/10 07:20:33;;;;;;;6.97;2.42;;;;;;;22.85;44.45;100516.81;4964981;28;20027;-30
2023/09/10 07:23:36;;;;;;;;;;;;;;;23.10;44.28;100520.34;5037571;28;20628;-30
2023/09/10 07:26:37;;;;;;;6.25;2.50;;;;;;;23.16;42.29;100515.66;4936760;29;19915;-34
2023/09/10 07:29:38;;;;;;;6.53;2.30;;;;;;;23.31;41.16;100517.34;4935978;29;20249;-30
2023/09/10 07:32:42;;;;;;;10.20;2.92;;;;;;;23.59;41.93;100515.59;4986394;28;20037;-29
2023/09/10 07:35:42;;;;;;;4.32;1.95;;;;;;;23.34;40.51;100522.22;5075533;28;20044;-29
2023/09/10 07:38:42;;;;;;;4.93;2.20;;;;;;;23.66;40.33;100511.41;5106274;28;20055;-29
2023/09/10 07:41:43;;;;;;;4.63;1.98;;;;;;;23.76;40.51;100518.63;5087900;28;20723;-29
2023/09/10 07:44:08;;;;;;;5.47;2.28;;;;;;;23.97;39.78;100504.72;5103946;28;20086;-31
2023/09/10 07:46:54;;;;;;;7.15;2.25;;;;;;;23.91;40.16;100506.69;5107031;28;20505;-29
2023/09/10 07:49:54;;;;;;;5.53;2.03;;;;;;;24.30;39.88;100504.69;5105333;28;20055;-32
2023/09/10 07:52:55;;;;;;;7.97;2.40;;;;;;;24.29;38.53;100509.31;5070809;28;20130;-29
2023/09/10 07:55:59;;;;;;;5.13;2.03;;;;;;;24.31;38.04;100507.09;5102999;28;20055;-30
2023/09/10 07:59:00;;;;;;;5.75;2.08;;;;;;;24.67;38.20;100514.63;5105556;28;20464;-29
2023/09/10 08:02:15;;;;;;;7.03;2.40;;;;;;;25.10;36.52;100506.13;5043535;28;20033;-29
2023/09/10 08:05:05;;;;;;;8.95;2.42;;;;;;;25.35;35.48;100514.91;5035518;28;20029;-29
2023/09/10 08:08:03;;;;;;;6.95;2.45;;;;;;;25.39;35.56;100513.97;5043633;28;20029;-29
2023/09/10 08:11:04;;;;;;;6.13;2.60;;;;;;;25.56;34.60;100512.50;5021286;28;20067;-30
2023/09/10 08:14:07;;;;;;;6.93;2.90;;;;;;;25.61;35.03;100494.09;5041392;28;20048;-30
2023/09/10 08:17:14;;;;;;;5.03;2.47;;;;;;;25.59;35.97;100498.25;5012546;28;20036;-31
2023/09/10 08:20:18;;;;;;;6.78;2.45;;;;;;;26.20;34.66;100501.41;5041544;28;20032;-32
2023/09/10 08:23:11;;;;;;;6.93;2.28;;;;;;;26.35;33.10;100495.53;5078440;28;20551;-31
2023/09/10 08:26:12;;;;;;;5.30;2.55;;;;;;;26.12;32.73;100493.97;5104268;28;20022;-31
2023/09/10 08:29:15;;;;;;;7.25;2.53;;;;;;;26.28;33.72;100489.72;5071679;28;20092;-31
2023/09/10 08:32:15;;;;;;;8.30;3.13;;;;;;;26.55;32.07;100482.44;5103333;28;20032;-32
2023/09/10 08:34:41;;;;;;;5.35;2.28;;;;;;;26.44;32.76;100493.66;5102146;28;20027;-32
2023/09/10 08:37:41;;;;;;;5.93;2.15;;;;;;;26.70;31.82;100489.44;5105434;28;20020;-28
2023/09/10 08:40:43;;;;;;;5.75;2.38;;;;;;;26.24;33.88;100486.81;5071328;28;20053;-31
2023/09/10 08:43:49;;;;;;;4.57;2.17;;;;;;;26.59;32.81;100483.44;5042071;28;20504;-31
2023/09/10 08:46:48;;;;;;;8.67;2.40;;;;;;;26.73;33.55;100472.41;5040532;28;20037;-31
2023/09/10 08:50:03;;;;;;;6.65;2.53;;;;;;;27.00;31.94;100476.78;5040230;28;20283;-33
2023/09/10 08:53:05;;;;;;;5.45;2.20;;;;;;;27.08;33.01;100462.31;5032091;28;20044;-31
2023/09/10 08:56:01;;;;;;;7.78;2.50;;;;;;;27.36;30.84;100472.97;5061586;28;20032;-32
2023/09/10 08:58:55;;;;;;;4.20;2.08;;;;;;;27.38;31.87;100466.06;5103418;28;20035;-31
2023/09/10 09:01:53;;;;;;;6.85;2.38;;;;;;;27.45;30.66;100471.06;5091011;28;20055;-31
2023/09/10 09:04:58;;;;;;;9.13;3.17;;;;;;;27.47;32.14;100468.00;5083300;28;20597;-32
2023/09/10 09:07:58;;;;;;;6.45;2.65;;;;;;;27.98;31.64;100469.09;5083023;28;20054;-30
2023/09/10 09:11:03;;;;;;;6.63;2.30;;;;;;;27.92;30.84;100460.22;5097085;28;20042;-31
2023/09/10 09:14:03;;;;;;;7.28;2.50;;;;;;;28.24;29.81;100458.03;5058965;28;20528;-29
2023/09/10 09:17:04;;;;;;;6.25;2.40;;;;;;;28.41;31.08;100460.69;5011317;28;20461;-29
2023/09/10 09:20:11;;;;;;;6.47;2.60;;;;;;;28.44;30.81;100471.03;5061222;28;20036;-29
2023/09/10 09:23:20;;;;;;;5.78;2.42;;;;;;;27.78;29.65;100463.13;5082806;28;20040;-30
2023/09/10 09:26:09;;;;;;;6.82;2.65;;;;;;;27.63;30.36;100456.22;5085336;28;20093;-32
2023/09/10 09:29:20;;;;;;;6.82;3.20;;;;;;;27.89;30.05;100468.28;5079302;28;20054;-30
2023/09/10 09:32:14;;;;;;;5.70;2.55;;;;;;;27.79;30.70;100462.00;5090496;28;20051;-32
2023/09/10 09:35:21;;;;;;;5.53;2.42;;;;;;;28.00;30.53;100459.41;5092565;28;20032;-31
2023/09/10 09:38:15;;;;;;;;;;;;;;;28.33;30.73;100460.75;5097637;28;20067;-30
2023/09/10 09:41:16;;;;;;;8.80;2.40;;;;;;;28.43;29.43;100461.16;5083016;28;19977;-29
2023/09/10 09:44:18;;;;;;;3.65;2.17;;;;;;;28.70;29.86;100450.88;5078747;28;20927;-30
2023/09/10 09:47:20;;;;;;;6.55;2.40;;;;;;;28.44;29.10;100451.81;5025055;28;20055;-29
2023/09/10 09:50:25;;;;;;;7.15;3.78;;;;;;;28.78;29.12;100439.06;5095514;28;20130;-32
2023/09/10 09:53:36;;;;;;;6.47;2.63;;;;;;;28.80;29.32;100428.56;5102229;28;20483;-31
2023/09/10 09:56:24;;;;;;;6.68;2.97;;;;;;;28.94;28.96;100435.75;5102772;28;20062;-30
2023/09/10 09:59:35;;;;;;;5.35;2.70;;;;;;;29.41;29.47;100432.81;5077012;28;20146;-30
2023/09/10 10:02:29;;;;;;;6.70;2.58;;;;;;;29.70;28.88;100429.13;5094252;28;20580;-31
2023/09/10 10:05:33;;;;;;;5.13;2.40;;;;;;;30.19;28.47;100429.22;5084033;28;20036;-32
2023/09/10 10:08:32;;;;;;;6.25;2.58;;;;;;;29.87;28.00;100428.16;5082690;28;20039;-31
2023/09/10 10:11:33;;;;;;;6.40;2.42;;;;;;;29.42;28.79;100428.91;5067345;28;20040;-31
2023/09/10 10:14:36;;;;;;;6.05;2.95;;;;;;;29.94;28.96;100417.41;5100004;28;20047;-34
2023/09/10 10:17:45;;;;;;;6.50;2.30;;;;;;;30.27;28.57;100411.00;5094421;28;20053;-32
2023/09/10 10:20:46;;;;;;;10.90;2.60;;;;;;;29.88;29.09;100399.53;5094385;27;20035;-33
2023/09/10 10:23:50;;;;;;;7.13;2.40;;;;;;;30.05;27.38;100393.81;5107778;28;20132;-31
2023/09/10 10:26:44;;;;;;;5.50;2.28;;;;;;;29.71;27.39;100391.47;5107657;27;20032;-31
2023/09/10 10:29:53;;;;;;;4.78;2.67;;;;;;;30.58;28.53;100406.91;5102379;28;20039;-31
2023/09/10 10:32:49;;;;;;;13.55;4.75;;;;;;;30.24;27.36;100392.47;5107483;28;20572;-30
2023/09/10 10:35:52;;;;;;;8.32;2.60;;;;;;;30.74;26.76;100391.28;5107865;28;20027;-30
2023/09/10 10:38:53;;;;;;;4.22;2.38;;;;;;;30.80;26.20;100391.84;5103515;28;20028;-31
2023/09/10 10:41:55;;;;;;;9.50;2.67;;;;;;;30.76;26.03;100386.22;5108942;27;20504;-31
2023/09/10 10:44:56;;;;;;;7.80;2.97;;;;;;;30.99;25.57;100388.47;5098904;28;20027;-30
2023/09/10 10:47:59;;;;;;;7.13;2.60;;;;;;;31.12;25.26;100386.47;5066629;28;20513;-31
2023/09/10 10:51:12;;;;;;;7.60;2.53;;;;;;;31.47;25.54;100380.38;5044460;28;20029;-31
2023/09/10 10:54:00;;;;;;;7.40;2.28;;;;;;;31.64;25.61;100369.03;5043316;28;20056;-30
2023/09/10 10:57:06;;;;;;;9.27;2.83;;;;;;;31.51;25.22;100371.06;5043199;28;20025;-32
2023/09/10 11:00:10;;;;;;;12.00;2.72;;;;;;;30.96;25.65;100372.66;5035577;28;20512;-31
2023/09/10 11:03:12;;;;;;;7.65;2.65;;;;;;;31.03;25.57;100367.34;5042140;28;20033;-31
2023/09/10 11:06:08;;;;;;;6.70;2.30;;;;;;;31.58;25.13;100367.69;5042164;28;20030;-32
2023/09/10 11:09:18;;;;;;;6.35;2.20;;;;;;;31.14;25.83;100357.44;5044290;28;20036;-31
2023/09/10 11:12:10;;;;;;;6.72;2.22;;;;;;;31.20;25.70;100339.50;5041653;28;20128;-31
2023/09/10 11:15:12;;;;;;;5.30;2.58;;;;;;;31.75;24.66;100350.00;5039173;28;20127;-32
2023/09/10 11:18:15;;;;;;;7.75;2.05;;;;;;;31.70;24.18;100347.53;5044291;28;20037;-30
2023/09/10 11:21:15;;;;;;;6.28;2.40;;;;;;;31.38;24.82;100344.69;5043979;28;20074;-31
2023/09/10 11:24:18;;;;;;;8.02;2.58;;;;;;;31.76;24.76;100338.63;5062000;28;20032;-31
2023/09/10 11:27:22;;;;;;;5.93;2.13;;;;;;;31.47;24.19;100342.63;5087599;28;20039;-31
2023/09/10 11:30:21;;;;;;;6.63;2.38;;;;;;;31.53;24.67;100343.94;5088046;28;20168;-30
2023/09/10 11:33:24;;;;;;;6.13;2.40;;;;;;;31.29;25.46;100336.59;5087556;28;20464;-30
2023/09/10 11:36:26;;;;;;;3.70;2.00;;;;;;;30.93;27.27;100332.03;5087640;28;20024;-30
2023/09/10 11:39:27;;;;;;;7.80;2.40;;;;;;;31.39;27.11;100336.06;5079092;28;20035;-33
2023/09/10 11:42:30;;;;;;;5.47;2.38;;;;;;;31.01;27.58;100331.09;5044896;28;20521;-30
2023/09/10 11:45:33;;;;;;;5.25;2.05;;;;;;;30.29;28.51;100328.16;5044308;28;20061;-30
2023/09/10 11:48:33;;;;;;;5.75;2.35;;;;;;;30.09;29.96;100313.38;4984718;28;20046;-33
2023/09/10 11:51:50;;;;;;;9.23;2.65;;;;;;;29.50;30.38;100315.34;4980795;28;20046;-30
2023/09/10 11:54:36;;;;;;;9.57;2.20;;;;;;;29.58;31.87;100308.97;4962775;28;20047;-31
2023/09/10 11:57:40;;;;;;;11.90;2.10;;;;;;;29.48;31.90;100305.84;4996592;28;20068;-30
2023/09/10 12:00:41;;;;;;;4.50;2.00;;;;;;;29.29;33.35;100309.16;4964483;28;20435;-30
2023/09/10 12:03:48;;;;;;;7.20;2.70;;;;;;;29.68;32.30;100304.19;4982207;28;20076;-30
2023/09/10 12:09:47;;;;;;;8.38;2.88;;;;;;;30.49;32.97;100304.41;4988634;28;20321;-31
2023/09/10 12:12:48;;;;;;;11.85;3.92;;;;;;;30.46;32.14;100321.59;5025781;28;20525;-30
2023/09/10 12:15:58;;;;;;;5.75;2.35;;;;;;;30.23;33.10;100308.31;5003964;28;20040;-30
2023/09/10 12:18:52;;;;;;;6.15;2.72;;;;;;;30.88;31.65;100291.00;5012998;28;20041;-29
2023/09/10 12:21:52;;;;;;;7.65;2.78;;;;;;;31.59;31.98;100309.47;5045965;28;20163;-30
2023/09/10 12:25:08;;;;;;;4.45;2.38;;;;;;;31.00;30.75;100308.28;5086821;28;20025;-34
2023/09/10 12:27:57;;;;;;;10.38;2.63;;;;;;;31.72;29.67;100303.84;5043287;28;20045;-32
2023/09/10 12:31:13;;;;;;;7.53;2.50;;;;;;;31.05;30.71;100298.94;5043875;28;20789;-34
2023/09/10 12:33:59;;;;;;;;;;;;;;;30.68;31.78;100295.53;4994535;28;20048;-33
2023/09/10 12:37:02;;;;;;;10.90;2.92;;;;;;;30.80;31.53;100296.28;5048959;28;20012;-29
2023/09/10 12:40:04;;;;;;;5.85;2.70;;;;;;;30.60;32.22;100294.50;5084658;28;20126;-32
2023/09/10 12:42:29;;;;;;;5.63;2.42;;;;;;;30.84;32.49;100286.16;5083159;28;20060;-31
2023/09/10 12:44:55;;;;;;;8.13;3.25;;;;;;;30.26;32.05;100288.38;5085924;28;20050;-32
2023/09/10 12:47:20;;;;;;;9.82;2.72;;;;;;;30.37;32.76;100291.47;5085733;28;20035;-31
2023/09/10 12:50:20;;;;;;;9.23;3.00;;;;;;;30.37;32.43;100292.28;5092443;28;20020;-34